Milas, Turkey
Current Conditions -  °F | °C
As of 3:20 PM on Saturday 25 Oct 2014 (Local Time) from LTFE Reporting Station
Scattered Clouds Scattered Clouds  
Wind Chill: 73°   Ceiling: Unl
Heat Index: 73°   Visibility: 6mi
Dew Point: 50°   Wind: 12mph
Humidity: 44%   Direction: 230°SW
Pressure: 29.85"   Gusts: NA
Location:  37.32°N, 27.77°E
Report Text: LTFE 251220Z 23010KT 190V260 9999 FEW020TCU SCT030 23/10 Q1011 TEMPO -TSRA
Loading
Personal Weather Stations






























Interactive Weather Map New forecast layout! Learn more

10-Day Weather Forecast

Advertisements
Track Severe Weather on mobile